createdAt,value
2018-09-01T00:00:37.918Z,12.20
2018-09-01T00:03:05.270Z,12.30
2018-09-01T00:05:32.393Z,12.30
2018-09-01T00:07:59.512Z,12.30
2018-09-01T00:10:27.059Z,12.30
2018-09-01T00:12:54.184Z,12.30
2018-09-01T00:15:21.330Z,12.30
2018-09-01T00:17:48.641Z,12.30
2018-09-01T00:20:15.753Z,12.30
2018-09-01T00:22:43.491Z,12.30
2018-09-01T00:25:10.738Z,12.30
2018-09-01T00:27:37.862Z,12.30
2018-09-01T00:30:05.231Z,12.30
2018-09-01T00:32:32.369Z,12.30
2018-09-01T00:34:59.477Z,12.30
2018-09-01T00:37:32.595Z,12.30
2018-09-01T00:39:59.648Z,12.30
2018-09-01T00:42:27.327Z,12.30
2018-09-01T00:44:54.406Z,12.30
2018-09-01T00:47:21.507Z,12.30
2018-09-01T00:49:49.366Z,12.20
2018-09-01T00:52:16.470Z,12.20
2018-09-01T00:54:44.215Z,12.20
2018-09-01T00:57:12.275Z,12.20
2018-09-01T00:59:39.363Z,12.20
2018-09-01T01:02:06.455Z,12.10
2018-09-01T01:04:33.537Z,12.10
2018-09-01T01:07:00.638Z,12.10
2018-09-01T01:09:27.734Z,12.00
2018-09-01T01:11:55.342Z,12.00
2018-09-01T01:14:22.487Z,12.00
2018-09-01T01:16:49.602Z,11.90
2018-09-01T01:19:16.758Z,11.90
2018-09-01T01:21:43.874Z,11.90
2018-09-01T01:24:11.234Z,11.90
2018-09-01T01:26:38.506Z,11.90
2018-09-01T01:29:05.601Z,11.90
2018-09-01T01:31:32.927Z,11.90
2018-09-01T01:34:00.019Z,11.90
2018-09-01T01:36:27.258Z,11.90
2018-09-01T01:38:54.754Z,11.80
2018-09-01T01:41:21.863Z,11.80
2018-09-01T01:43:48.970Z,11.90
2018-09-01T01:46:16.586Z,12.00
2018-09-01T01:48:43.717Z,12.00
2018-09-01T01:51:11.164Z,12.00
2018-09-01T01:53:38.829Z,12.00
2018-09-01T01:56:05.961Z,12.00
2018-09-01T01:58:33.085Z,12.00
2018-09-01T02:01:00.374Z,11.90
2018-09-01T02:03:27.542Z,11.80
2018-09-01T02:05:54.661Z,11.80
2018-09-01T02:08:22.073Z,11.80
2018-09-01T02:10:49.294Z,11.70
2018-09-01T02:13:16.413Z,11.60
2018-09-01T02:15:43.881Z,11.60
2018-09-01T02:18:11.001Z,11.60
2018-09-01T02:20:38.310Z,11.50
2018-09-01T02:23:05.630Z,11.50
2018-09-01T02:25:32.750Z,11.50
2018-09-01T02:27:59.878Z,11.50
2018-09-01T02:30:26.993Z,11.50
2018-09-01T02:32:54.113Z,11.50
2018-09-01T02:35:21.640Z,11.50
2018-09-01T02:37:48.741Z,11.50
2018-09-01T02:40:15.829Z,11.40
2018-09-01T02:42:43.581Z,11.40
2018-09-01T02:45:10.805Z,11.40
2018-09-01T02:47:37.921Z,11.40
2018-09-01T02:50:05.673Z,11.40
2018-09-01T02:52:32.801Z,11.40
2018-09-01T02:54:59.890Z,11.40
2018-09-01T02:57:27.449Z,11.40
2018-09-01T02:59:54.609Z,11.40
2018-09-01T03:02:27.634Z,11.30
2018-09-01T03:04:54.772Z,11.20
2018-09-01T03:07:22.360Z,11.20
2018-09-01T03:09:49.597Z,11.20
2018-09-01T03:12:16.706Z,11.20
2018-09-01T03:14:44.022Z,11.20
2018-09-01T03:17:11.365Z,11.20
2018-09-01T03:19:38.605Z,11.20
2018-09-01T03:22:06.050Z,11.20
2018-09-01T03:24:33.153Z,11.10
2018-09-01T03:27:00.241Z,11.10
2018-09-01T03:29:28.057Z,11.10
2018-09-01T03:31:55.205Z,11.10
2018-09-01T03:34:22.372Z,11.00
2018-09-01T03:36:50.110Z,11.00
2018-09-01T03:39:17.261Z,11.00
2018-09-01T03:41:44.382Z,10.90
2018-09-01T03:44:11.931Z,10.90
2018-09-01T03:46:39.073Z,10.90
2018-09-01T03:49:07.721Z,10.90
2018-09-01T03:51:35.133Z,10.90
2018-09-01T03:54:02.402Z,10.90
2018-09-01T03:56:29.537Z,10.90
2018-09-01T03:58:57.068Z,10.80
2018-09-01T04:01:24.194Z,10.80
2018-09-01T04:03:51.318Z,10.80
2018-09-01T04:06:18.859Z,10.80
2018-09-01T04:08:46.050Z,10.70
2018-09-01T04:11:13.174Z,10.70
2018-09-01T04:13:40.841Z,10.70
2018-09-01T04:16:07.990Z,10.70
2018-09-01T04:18:35.111Z,10.70
2018-09-01T04:21:02.593Z,10.60
2018-09-01T04:23:29.709Z,10.60
2018-09-01T04:25:56.870Z,10.60
2018-09-01T04:28:24.477Z,10.60
2018-09-01T04:30:51.606Z,10.70
2018-09-01T04:33:18.722Z,10.70
2018-09-01T04:35:45.945Z,10.70
2018-09-01T04:38:13.057Z,10.80
2018-09-01T04:40:40.337Z,10.80
2018-09-01T04:43:08.429Z,10.80
2018-09-01T04:45:35.534Z,10.90
2018-09-01T04:48:02.661Z,10.90
2018-09-01T04:50:29.802Z,10.90
2018-09-01T04:52:56.893Z,10.90
2018-09-01T04:55:24.325Z,11.00
2018-09-01T04:57:51.413Z,11.00
2018-09-01T05:00:22.433Z,11.10
2018-09-01T05:02:50.697Z,11.20
2018-09-01T05:05:17.929Z,11.20
2018-09-01T05:07:45.501Z,11.30
2018-09-01T05:10:12.605Z,11.30
2018-09-01T05:12:39.933Z,11.40
2018-09-01T05:15:07.265Z,11.40
2018-09-01T05:17:34.373Z,11.50
2018-09-01T05:20:01.794Z,11.50
2018-09-01T05:22:28.905Z,11.50
2018-09-01T05:24:56.029Z,11.60
2018-09-01T05:27:23.370Z,11.60
2018-09-01T05:29:50.814Z,11.60
2018-09-01T05:32:17.925Z,11.60
2018-09-01T05:34:45.362Z,11.60
2018-09-01T05:37:12.458Z,11.70
2018-09-01T05:39:39.574Z,11.70
2018-09-01T05:42:07.352Z,11.70
2018-09-01T05:44:34.693Z,11.70
2018-09-01T05:47:01.971Z,11.70
2018-09-01T05:49:29.622Z,11.70
2018-09-01T05:51:56.749Z,11.80
2018-09-01T05:54:23.849Z,11.80
2018-09-01T05:56:51.418Z,11.80
2018-09-01T05:59:18.513Z,11.80
2018-09-01T06:01:45.678Z,11.80
2018-09-01T06:04:13.229Z,11.80
2018-09-01T06:06:40.502Z,11.80
2018-09-01T06:09:08.453Z,11.80
2018-09-01T06:11:36.038Z,11.90
2018-09-01T06:14:03.154Z,11.90
2018-09-01T06:16:30.248Z,12.00
2018-09-01T06:18:57.933Z,12.00
2018-09-01T06:21:25.041Z,12.10
2018-09-01T06:23:52.158Z,12.20
2018-09-01T06:26:19.662Z,12.20
2018-09-01T06:28:50.526Z,12.20
2018-09-01T06:31:18.618Z,12.20
2018-09-01T06:33:45.767Z,12.30
2018-09-01T06:36:13.431Z,12.30
2018-09-01T06:38:40.554Z,12.40
2018-09-01T06:41:08.001Z,12.40
2018-09-01T06:43:35.729Z,12.50
2018-09-01T06:46:02.857Z,12.60
2018-09-01T06:48:29.977Z,12.70
2018-09-01T06:50:57.541Z,12.90
2018-09-01T06:53:24.657Z,13.00
2018-09-01T06:55:52.373Z,13.00
2018-09-01T06:58:20.033Z,13.20
2018-09-01T07:00:47.147Z,13.20
2018-09-01T07:03:14.257Z,13.30
2018-09-01T07:05:41.633Z,13.50
2018-09-01T07:08:08.749Z,13.70
2018-09-01T07:10:35.877Z,13.90
2018-09-01T07:13:03.633Z,14.20
2018-09-01T07:15:30.754Z,14.70
2018-09-01T07:17:57.917Z,15.20
2018-09-01T07:20:25.226Z,15.80
2018-09-01T07:22:52.655Z,16.50
2018-09-01T07:25:20.033Z,16.80
2018-09-01T07:27:47.246Z,16.80
2018-09-01T07:30:14.544Z,16.80
2018-09-01T07:32:41.746Z,16.80
2018-09-01T07:35:09.038Z,16.80
2018-09-01T07:37:36.206Z,16.70
2018-09-01T07:40:03.750Z,16.70
2018-09-01T07:42:30.873Z,16.80
2018-09-01T07:44:58.097Z,16.80
2018-09-01T07:47:25.622Z,16.90
2018-09-01T07:49:52.757Z,17.00
2018-09-01T07:52:19.889Z,17.40
2018-09-01T07:54:47.821Z,17.70
2018-09-01T07:57:14.969Z,17.90
2018-09-01T07:59:42.077Z,18.30
2018-09-01T08:02:09.730Z,19.30
2018-09-01T08:04:36.854Z,20.50
2018-09-01T08:07:04.105Z,22.30
2018-09-01T08:09:31.709Z,22.60
2018-09-01T08:11:58.829Z,22.90
2018-09-01T08:14:26.070Z,23.90
2018-09-01T08:16:53.508Z,24.60
2018-09-01T08:19:20.685Z,26.00
2018-09-01T08:21:47.817Z,25.90
2018-09-01T08:24:15.121Z,25.00
2018-09-01T08:26:42.250Z,24.20
2018-09-01T08:29:09.386Z,23.70
2018-09-01T08:31:36.914Z,22.70
2018-09-01T08:34:04.066Z,21.80
2018-09-01T08:36:31.234Z,21.30
2018-09-01T08:38:58.361Z,21.30
2018-09-01T08:41:25.469Z,21.40
2018-09-01T08:43:52.877Z,21.50
2018-09-01T08:46:20.397Z,21.80
2018-09-01T08:48:47.506Z,21.60
2018-09-01T08:51:15.029Z,21.20
2018-09-01T08:53:42.265Z,20.90
2018-09-01T08:56:09.377Z,20.80
2018-09-01T08:58:36.757Z,20.50
2018-09-01T09:01:03.916Z,20.20
2018-09-01T09:03:31.365Z,19.80
2018-09-01T09:05:58.968Z,19.60
2018-09-01T09:08:26.121Z,19.40
2018-09-01T09:10:53.382Z,19.50
2018-09-01T09:13:20.677Z,19.70
2018-09-01T09:15:47.853Z,19.70
2018-09-01T09:18:15.006Z,19.60
2018-09-01T09:20:42.677Z,19.80
2018-09-01T09:23:10.153Z,20.00
2018-09-01T09:25:37.317Z,20.90
2018-09-01T09:28:05.093Z,21.80
2018-09-01T09:30:32.263Z,22.10
2018-09-01T09:32:59.382Z,21.90
2018-09-01T09:35:26.690Z,22.10
2018-09-01T09:37:53.832Z,23.20
2018-09-01T09:40:20.954Z,24.60
2018-09-01T09:42:48.332Z,25.60
2018-09-01T09:45:15.458Z,26.90
2018-09-01T09:47:42.561Z,27.50
2018-09-01T09:50:09.681Z,27.00
2018-09-01T09:52:36.779Z,26.10
2018-09-01T09:55:04.022Z,25.10
2018-09-01T09:57:31.129Z,24.90
2018-09-01T09:59:58.217Z,24.60
2018-09-01T10:02:26.009Z,23.70
2018-09-01T10:04:53.145Z,23.60
2018-09-01T10:07:20.274Z,23.30
2018-09-01T10:09:47.722Z,23.30
2018-09-01T10:12:14.826Z,23.70
2018-09-01T10:14:41.973Z,23.70
2018-09-01T10:17:09.461Z,23.40
2018-09-01T10:19:36.562Z,23.30
2018-09-01T10:22:03.665Z,23.60
2018-09-01T10:24:31.061Z,24.00
2018-09-01T10:26:58.291Z,24.00
2018-09-01T10:29:25.456Z,23.90
2018-09-01T10:31:52.642Z,24.30
2018-09-01T10:34:19.742Z,25.20
2018-09-01T10:36:47.843Z,26.50
2018-09-01T10:39:15.782Z,27.70
2018-09-01T10:41:43.360Z,27.90
2018-09-01T10:44:10.838Z,27.80
2018-09-01T10:46:38.626Z,28.00
2018-09-01T10:49:06.273Z,28.00
2018-09-01T10:51:33.926Z,27.80
2018-09-01T10:54:01.709Z,27.40
2018-09-01T10:56:29.617Z,26.80
2018-09-01T10:58:56.999Z,25.80
2018-09-01T11:01:24.272Z,24.90
2018-09-01T11:03:51.790Z,24.50
2018-09-01T11:06:19.426Z,25.00
2018-09-01T11:08:46.649Z,25.00
2018-09-01T11:11:13.749Z,24.50
2018-09-01T11:13:40.954Z,23.70
2018-09-01T11:16:08.128Z,22.90
2018-09-01T11:18:35.270Z,22.40
2018-09-01T11:21:02.326Z,22.00
2018-09-01T11:23:29.768Z,21.70
2018-09-01T11:25:56.861Z,21.30
2018-09-01T11:28:23.973Z,20.90
2018-09-01T11:30:51.477Z,20.60
2018-09-01T11:33:18.594Z,20.60
2018-09-01T11:35:45.725Z,20.60
2018-09-01T11:38:13.016Z,20.50
2018-09-01T11:40:40.113Z,20.40
2018-09-01T11:43:07.425Z,20.30
2018-09-01T11:45:34.600Z,20.10
2018-09-01T11:48:01.713Z,20.00
2018-09-01T11:50:28.933Z,20.20
2018-09-01T11:52:56.075Z,20.50
2018-09-01T11:55:23.178Z,20.90
2018-09-01T11:57:50.663Z,21.60
2018-09-01T12:00:17.737Z,22.10
2018-09-01T12:02:44.841Z,22.40
2018-09-01T12:05:12.626Z,22.50
2018-09-01T12:07:39.722Z,22.30
2018-09-01T12:10:07.366Z,22.30
2018-09-01T12:12:35.245Z,22.40
2018-09-01T12:15:02.369Z,22.30
2018-09-01T12:17:29.466Z,22.70
2018-09-01T12:19:56.870Z,23.00
2018-09-01T12:22:24.093Z,23.10
2018-09-01T12:24:51.122Z,22.90
2018-09-01T12:27:18.665Z,22.70
2018-09-01T12:29:45.769Z,22.80
2018-09-01T12:32:13.032Z,23.20
2018-09-01T12:34:40.517Z,23.60
2018-09-01T12:37:07.610Z,23.80
2018-09-01T12:39:34.741Z,23.90
2018-09-01T12:42:02.066Z,24.20
2018-09-01T12:44:29.127Z,24.60
2018-09-01T12:46:56.257Z,24.90
2018-09-01T12:49:23.653Z,24.90
2018-09-01T12:51:50.789Z,24.50
2018-09-01T12:54:18.329Z,24.10
2018-09-01T12:56:45.449Z,24.50
2018-09-01T12:59:12.593Z,25.10
2018-09-01T13:01:39.925Z,25.00
2018-09-01T13:04:07.041Z,25.10
2018-09-01T13:06:34.165Z,25.10
2018-09-01T13:09:01.671Z,25.40
2018-09-01T13:11:28.785Z,25.30
2018-09-01T13:13:55.889Z,24.80
2018-09-01T13:16:23.323Z,24.60
2018-09-01T13:18:50.422Z,24.10
2018-09-01T13:21:17.573Z,23.90
2018-09-01T13:23:44.909Z,24.00
2018-09-01T13:26:12.018Z,23.80
2018-09-01T13:28:39.122Z,23.40
2018-09-01T13:31:06.405Z,23.30
2018-09-01T13:33:33.748Z,23.60
2018-09-01T13:36:01.113Z,23.60
2018-09-01T13:38:28.283Z,23.60
2018-09-01T13:40:55.437Z,23.60
2018-09-01T13:43:22.745Z,23.50
2018-09-01T13:45:50.049Z,23.30
2018-09-01T13:48:17.173Z,23.20
2018-09-01T13:50:44.520Z,22.80
2018-09-01T13:53:11.635Z,22.70
2018-09-01T13:55:38.737Z,22.80
2018-09-01T13:58:06.493Z,22.80
2018-09-01T14:00:33.593Z,22.90
2018-09-01T14:03:00.722Z,23.10
2018-09-01T14:05:28.349Z,23.10
2018-09-01T14:07:55.561Z,23.30
2018-09-01T14:10:22.575Z,23.20
2018-09-01T14:12:50.516Z,23.40
2018-09-01T14:15:17.613Z,23.20
2018-09-01T14:17:44.713Z,23.10
2018-09-01T14:20:12.006Z,23.00
2018-09-01T14:22:39.278Z,22.80
2018-09-01T14:25:06.445Z,22.70
2018-09-01T14:27:33.594Z,22.60
2018-09-01T14:30:00.698Z,22.70
2018-09-01T14:32:28.429Z,22.80
2018-09-01T14:34:55.669Z,22.70
2018-09-01T14:37:22.809Z,22.40
2018-09-01T14:39:50.419Z,22.60
2018-09-01T14:42:17.690Z,22.90
2018-09-01T14:44:44.881Z,23.10
2018-09-01T14:47:12.136Z,23.00
2018-09-01T14:49:39.477Z,23.00
2018-09-01T14:52:06.632Z,23.10
2018-09-01T14:54:33.874Z,23.30
2018-09-01T14:57:01.005Z,23.20
2018-09-01T14:59:28.152Z,23.00
2018-09-01T15:01:55.720Z,22.80
2018-09-01T15:04:22.841Z,22.80
2018-09-01T15:06:50.005Z,22.90
2018-09-01T15:09:17.625Z,22.90
2018-09-01T15:11:44.805Z,22.90
2018-09-01T15:14:12.568Z,23.00
2018-09-01T15:16:39.997Z,22.70
2018-09-01T15:19:07.180Z,22.60
2018-09-01T15:21:34.557Z,22.70
2018-09-01T15:24:01.816Z,22.50
2018-09-01T15:26:28.949Z,22.50
2018-09-01T15:28:56.063Z,22.50
2018-09-01T15:31:23.302Z,22.60
2018-09-01T15:33:50.401Z,23.20
2018-09-01T15:36:17.545Z,24.10
2018-09-01T15:38:44.698Z,25.10
2018-09-01T15:41:11.813Z,25.60
2018-09-01T15:43:39.117Z,25.40
2018-09-01T15:46:06.885Z,25.30
2018-09-01T15:48:33.990Z,25.30
2018-09-01T15:51:01.434Z,25.40
2018-09-01T15:53:28.614Z,25.00
2018-09-01T15:55:55.770Z,24.40
2018-09-01T15:58:23.182Z,23.80
2018-09-01T16:00:50.641Z,23.30
2018-09-01T16:03:17.805Z,23.00
2018-09-01T16:05:45.390Z,22.80
2018-09-01T16:08:12.485Z,22.40
2018-09-01T16:10:39.589Z,22.10
2018-09-01T16:13:07.077Z,21.70
2018-09-01T16:15:34.181Z,21.30
2018-09-01T16:18:01.297Z,21.00
2018-09-01T16:20:28.849Z,20.80
2018-09-01T16:22:55.996Z,20.50
2018-09-01T16:25:23.108Z,20.30
2018-09-01T16:27:50.565Z,20.10
2018-09-01T16:30:17.909Z,19.90
2018-09-01T16:32:45.018Z,19.70
2018-09-01T16:35:12.645Z,19.60
2018-09-01T16:37:39.854Z,19.50
2018-09-01T16:40:07.005Z,19.40
2018-09-01T16:42:34.201Z,19.30
2018-09-01T16:45:01.330Z,19.30
2018-09-01T16:47:28.701Z,19.20
2018-09-01T16:49:55.891Z,19.00
2018-09-01T16:52:23.165Z,19.00
2018-09-01T16:54:50.725Z,18.90
2018-09-01T16:57:17.886Z,18.80
2018-09-01T16:59:45.017Z,18.80
2018-09-01T17:02:12.225Z,18.80
2018-09-01T17:04:39.349Z,18.70
2018-09-01T17:07:06.485Z,18.70
2018-09-01T17:09:34.456Z,18.60
2018-09-01T17:12:01.497Z,18.60
2018-09-01T17:14:28.621Z,18.50
2018-09-01T17:16:56.017Z,18.40
2018-09-01T17:19:23.563Z,18.30
2018-09-01T17:21:50.697Z,18.30
2018-09-01T17:24:18.369Z,18.20
2018-09-01T17:26:45.593Z,18.10
2018-09-01T17:29:12.742Z,18.10
2018-09-01T17:31:40.279Z,18.00
2018-09-01T17:34:07.401Z,18.00
2018-09-01T17:36:34.505Z,17.90
2018-09-01T17:39:01.777Z,17.90
2018-09-01T17:41:28.954Z,17.80
2018-09-01T17:43:56.038Z,17.70
2018-09-01T17:46:23.397Z,17.70
2018-09-01T17:48:50.522Z,17.60
2018-09-01T17:51:17.817Z,17.60
2018-09-01T17:53:44.954Z,17.50
2018-09-01T17:56:12.062Z,17.50
2018-09-01T17:58:39.569Z,17.40
2018-09-01T18:01:06.689Z,17.40
2018-09-01T18:03:33.782Z,17.30
2018-09-01T18:06:01.133Z,17.30
2018-09-01T18:08:28.225Z,17.30
2018-09-01T18:10:55.333Z,17.30
2018-09-01T18:13:23.065Z,17.20
2018-09-01T18:15:50.190Z,17.10
2018-09-01T18:18:17.330Z,17.10
2018-09-01T18:20:44.673Z,17.00
2018-09-01T18:23:11.786Z,17.00
2018-09-01T18:25:38.894Z,17.00
2018-09-01T18:28:06.254Z,17.00
2018-09-01T18:30:33.352Z,16.90
2018-09-01T18:33:00.455Z,16.90
2018-09-01T18:35:27.622Z,16.90
2018-09-01T18:37:54.699Z,16.90
2018-09-01T18:40:22.161Z,16.90
2018-09-01T18:42:49.286Z,16.80
2018-09-01T18:45:16.393Z,16.80
2018-09-01T18:47:43.917Z,16.80
2018-09-01T18:50:11.236Z,16.80
2018-09-01T18:52:38.341Z,16.80
2018-09-01T18:55:05.958Z,16.70
2018-09-01T18:57:33.093Z,16.70
2018-09-01T19:00:00.254Z,16.70
2018-09-01T19:02:27.798Z,16.70
2018-09-01T19:04:55.042Z,16.60
2018-09-01T19:07:22.109Z,16.60
2018-09-01T19:09:49.688Z,16.50
2018-09-01T19:12:16.833Z,16.50
2018-09-01T19:14:43.985Z,16.50
2018-09-01T19:17:11.518Z,16.40
2018-09-01T19:19:38.818Z,16.30
2018-09-01T19:22:05.965Z,16.30
2018-09-01T19:24:33.344Z,16.30
2018-09-01T19:27:00.467Z,16.20
2018-09-01T19:29:27.561Z,16.10
2018-09-01T19:31:54.945Z,16.10
2018-09-01T19:34:22.077Z,16.10
2018-09-01T19:36:49.542Z,16.00
2018-09-01T19:39:16.861Z,16.00
2018-09-01T19:41:44.049Z,16.00
2018-09-01T19:44:11.513Z,16.00
2018-09-01T19:46:38.789Z,15.90
2018-09-01T19:49:06.259Z,15.90
2018-09-01T19:51:33.534Z,15.80
2018-09-01T19:54:00.665Z,15.80
2018-09-01T19:56:27.798Z,15.80
2018-09-01T19:58:55.401Z,15.80
2018-09-01T20:01:22.545Z,15.80
2018-09-01T20:03:49.680Z,15.80
2018-09-01T20:06:17.106Z,15.80
2018-09-01T20:08:44.226Z,15.80
2018-09-01T20:11:11.345Z,15.80
2018-09-01T20:13:38.889Z,15.70
2018-09-01T20:16:06.008Z,15.70
2018-09-01T20:18:33.193Z,15.70
2018-09-01T20:21:00.958Z,15.70
2018-09-01T20:23:28.060Z,15.60
2018-09-01T20:25:55.154Z,15.60
2018-09-01T20:28:22.741Z,15.50
2018-09-01T20:30:49.833Z,15.50
2018-09-01T20:33:16.938Z,15.50
2018-09-01T20:35:49.741Z,15.40
2018-09-01T20:38:17.137Z,15.40
2018-09-01T20:40:44.273Z,15.50
2018-09-01T20:43:11.396Z,15.50
2018-09-01T20:45:39.028Z,15.50
2018-09-01T20:48:06.197Z,15.50
2018-09-01T20:50:33.909Z,15.50
2018-09-01T20:53:01.587Z,15.50
2018-09-01T20:55:28.860Z,15.50
2018-09-01T20:57:56.049Z,15.40
2018-09-01T21:00:23.607Z,15.40
2018-09-01T21:02:50.839Z,15.40
2018-09-01T21:05:17.981Z,15.40
2018-09-01T21:07:45.791Z,15.40
2018-09-01T21:10:13.864Z,15.30
2018-09-01T21:12:41.230Z,15.30
2018-09-01T21:15:08.577Z,15.20
2018-09-01T21:17:35.810Z,15.20
2018-09-01T21:20:03.073Z,15.20
2018-09-01T21:22:30.670Z,15.10
2018-09-01T21:24:57.837Z,15.10
2018-09-01T21:27:25.093Z,15.10
2018-09-01T21:29:52.941Z,15.10
2018-09-01T21:32:20.170Z,15.00
2018-09-01T21:34:47.387Z,15.00
2018-09-01T21:37:14.848Z,15.00
2018-09-01T21:39:42.547Z,15.00
2018-09-01T21:42:09.858Z,14.90
2018-09-01T21:44:37.293Z,14.90
2018-09-01T21:47:04.763Z,14.90
2018-09-01T21:49:31.947Z,14.80
2018-09-01T21:51:59.742Z,14.80
2018-09-01T21:54:27.019Z,14.80
2018-09-01T21:56:54.282Z,14.80
2018-09-01T21:59:21.620Z,14.80
2018-09-01T22:01:54.437Z,14.80
2018-09-01T22:04:21.876Z,14.80
2018-09-01T22:06:48.974Z,14.70
2018-09-01T22:09:16.143Z,14.70
2018-09-01T22:11:43.749Z,14.70
2018-09-01T22:14:11.082Z,14.70
2018-09-01T22:16:39.279Z,14.70
2018-09-01T22:19:06.529Z,14.70
2018-09-01T22:21:33.841Z,14.80
2018-09-01T22:24:00.970Z,14.80
2018-09-01T22:26:28.217Z,14.80
2018-09-01T22:28:55.349Z,14.80
2018-09-01T22:31:22.530Z,14.70
2018-09-01T22:33:49.830Z,14.70
2018-09-01T22:36:16.951Z,14.70
2018-09-01T22:38:44.285Z,14.60
2018-09-01T22:41:11.477Z,14.60
2018-09-01T22:43:38.597Z,14.60
2018-09-01T22:46:05.922Z,14.60
2018-09-01T22:48:33.066Z,14.60
2018-09-01T22:51:00.213Z,14.60
2018-09-01T22:53:27.619Z,14.60
2018-09-01T22:55:54.753Z,14.60
2018-09-01T22:58:21.933Z,14.60
2018-09-01T23:00:49.223Z,14.60
2018-09-01T23:03:17.037Z,14.50
2018-09-01T23:05:44.157Z,14.50
2018-09-01T23:08:11.332Z,14.50
2018-09-01T23:10:38.481Z,14.50
2018-09-01T23:13:05.665Z,14.50
2018-09-01T23:15:33.213Z,14.50
2018-09-01T23:18:00.329Z,14.50
2018-09-01T23:20:27.430Z,14.50
2018-09-01T23:22:54.873Z,14.50
2018-09-01T23:25:21.969Z,14.50
2018-09-01T23:27:49.081Z,14.40
2018-09-01T23:30:16.249Z,14.40
2018-09-01T23:32:43.359Z,14.40
2018-09-01T23:35:10.705Z,14.40
2018-09-01T23:37:37.905Z,14.40
2018-09-01T23:40:05.050Z,14.30
2018-09-01T23:42:32.146Z,14.30
2018-09-01T23:44:59.255Z,14.30
2018-09-01T23:47:26.369Z,14.40
2018-09-01T23:49:53.773Z,14.30
2018-09-01T23:52:20.894Z,14.30
2018-09-01T23:54:47.977Z,14.40
2018-09-01T23:57:15.611Z,14.40
2018-09-01T23:59:42.702Z,14.40
